< Typhoon 201205 2012 Season Typhoon 201207 >
Typhoon 201206 (DOKSURI)
General InformationTrack Information on Google MapsDetailed Wind InformationAccess Analytics MapList of All Images || NewsDisaster Info.WeblogTrackbackTyphoon FrontTwiphoonTyphoon Now!Typhoon ImaginationResourceGoogle EarthGE AnimationAtom FeedGeoJSON
Detalied Best Track (Time Zone = UTC)
Year Month Day Hour Lat. Long. Pressure (hPa) Wind (kt) Class Image Chart
2012 6 25 00 11.2 135.3 1008 0 2 Image Chart
2012 6 25 06 11.5 134.3 1006 0 2 Image Chart
2012 6 25 12 12.3 134.0 1006 0 2 Image Chart
2012 6 25 18 13.3 133.6 1004 0 2 Image Chart
2012 6 26 00 14.2 133.0 1006 0 2 Image Chart
2012 6 26 06 14.5 131.8 1004 0 2 Image Chart
2012 6 26 12 15.1 130.4 1004 0 2 Image Chart
2012 6 26 18 15.3 128.9 1000 35 3 Image Chart
2012 6 27 00 15.4 127.7 1000 35 3 Image Chart
2012 6 27 06 15.7 126.4 1000 35 3 Image Chart
2012 6 27 12 16.2 125.1 1000 35 3 Image Chart
2012 6 27 18 16.9 123.9 1000 35 3 Image Chart
2012 6 28 00 18.0 123.4 998 35 3 Image Chart
2012 6 28 06 19.5 123.1 994 40 3 Image Chart
2012 6 28 12 19.8 121.1 994 40 3 Image Chart
2012 6 28 18 20.0 119.5 994 40 3 Image Chart
2012 6 29 00 20.8 117.7 992 40 3 Image Chart
2012 6 29 06 21.0 116.0 992 40 3 Image Chart
2012 6 29 12 21.2 114.9 994 40 3 Image Chart
2012 6 29 18 21.8 113.6 996 35 3 Image Chart
2012 6 30 00 22.3 112.0 1000 0 2 Image Chart
2012 6 30 06 22.9 110.2 1000 0 2 Image Chart
Japan Meteorological Agency Best Track Data | Correction Date : 2012-07-23
< Typhoon 201205 2012 Season Typhoon 201207 >

Help